createdAt,value
2019-03-22T00:01:42.303Z,22.13
2019-03-22T00:04:08.694Z,20.60
2019-03-22T00:06:35.041Z,22.20
2019-03-22T00:09:01.390Z,21.10
2019-03-22T00:11:30.196Z,21.10
2019-03-22T00:13:56.903Z,21.23
2019-03-22T00:16:23.266Z,21.80
2019-03-22T00:18:49.700Z,20.10
2019-03-22T00:21:16.102Z,22.10
2019-03-22T00:23:42.738Z,22.57
2019-03-22T00:26:09.151Z,21.07
2019-03-22T00:28:35.814Z,22.83
2019-03-22T00:31:02.158Z,20.97
2019-03-22T00:33:28.933Z,21.30
2019-03-22T00:35:55.248Z,21.33
2019-03-22T00:38:21.976Z,21.57
2019-03-22T00:40:49.618Z,21.20
2019-03-22T00:43:15.979Z,22.30
2019-03-22T00:45:42.319Z,21.77
2019-03-22T00:48:08.665Z,22.63
2019-03-22T00:50:35.360Z,23.97
2019-03-22T00:53:02.110Z,22.33
2019-03-22T00:55:28.500Z,22.10
2019-03-22T00:57:55.163Z,24.10
2019-03-22T01:00:21.616Z,22.77
2019-03-22T01:02:47.965Z,22.43
2019-03-22T01:05:15.217Z,22.47
2019-03-22T01:07:41.556Z,23.40
2019-03-22T01:10:11.708Z,21.70
2019-03-22T01:12:38.399Z,21.33
2019-03-22T01:15:11.906Z,24.20
2019-03-22T01:17:38.247Z,23.17
2019-03-22T01:20:07.435Z,22.03
2019-03-22T01:22:34.148Z,23.10
2019-03-22T01:25:00.780Z,22.07
2019-03-22T01:27:27.468Z,22.07
2019-03-22T01:29:57.895Z,22.47
2019-03-22T01:32:25.268Z,22.37
2019-03-22T01:34:51.942Z,20.97
2019-03-22T01:37:18.342Z,22.13
2019-03-22T01:39:44.671Z,22.80
2019-03-22T01:42:11.010Z,22.43
2019-03-22T01:44:37.340Z,22.00
2019-03-22T01:47:04.021Z,22.70
2019-03-22T01:49:30.772Z,21.50
2019-03-22T01:51:57.089Z,23.63
2019-03-22T01:54:24.421Z,23.63
2019-03-22T01:56:50.724Z,24.70
2019-03-22T01:59:17.427Z,23.30
2019-03-22T02:01:43.781Z,26.27
2019-03-22T02:04:10.132Z,21.90
2019-03-22T02:06:36.689Z,23.37
2019-03-22T02:09:05.948Z,22.80
2019-03-22T02:11:32.307Z,23.47
2019-03-22T02:13:59.083Z,22.13
2019-03-22T02:16:25.837Z,22.13
2019-03-22T02:18:52.130Z,23.60
2019-03-22T02:21:19.626Z,22.30
2019-03-22T02:23:46.376Z,24.03
2019-03-22T02:26:13.114Z,25.37
2019-03-22T02:28:40.611Z,25.87
2019-03-22T02:31:07.126Z,24.33
2019-03-22T02:33:33.460Z,25.43
2019-03-22T02:35:59.807Z,25.40
2019-03-22T02:38:26.486Z,24.07
2019-03-22T02:40:53.134Z,24.63
2019-03-22T02:43:20.472Z,25.10
2019-03-22T02:45:46.827Z,23.93
2019-03-22T02:48:13.194Z,25.70
2019-03-22T02:50:39.589Z,26.17
2019-03-22T02:53:05.986Z,23.67
2019-03-22T02:55:32.318Z,22.93
2019-03-22T02:57:58.712Z,21.93
2019-03-22T03:00:25.057Z,23.37
2019-03-22T03:02:51.371Z,23.33
2019-03-22T03:05:17.713Z,23.50
2019-03-22T03:07:44.034Z,21.30
2019-03-22T03:10:14.894Z,21.73
2019-03-22T03:12:41.904Z,22.70
2019-03-22T03:15:15.464Z,22.87
2019-03-22T03:17:41.794Z,23.00
2019-03-22T03:20:13.593Z,20.53
2019-03-22T03:22:40.047Z,20.93
2019-03-22T03:25:08.524Z,23.80
2019-03-22T03:27:35.555Z,29.87
2019-03-22T03:30:15.080Z,28.50
2019-03-22T03:32:41.465Z,27.13
2019-03-22T03:35:08.128Z,26.70
2019-03-22T03:37:34.557Z,28.03
2019-03-22T03:40:02.871Z,31.27
2019-03-22T03:42:29.188Z,27.80
2019-03-22T03:44:55.562Z,26.23
2019-03-22T03:47:22.268Z,23.83
2019-03-22T03:49:48.701Z,24.33
2019-03-22T03:52:15.140Z,24.97
2019-03-22T03:54:41.519Z,22.77
2019-03-22T03:57:07.844Z,23.07
2019-03-22T03:59:34.175Z,23.30
2019-03-22T04:02:00.539Z,23.40
2019-03-22T04:04:27.111Z,23.03
2019-03-22T04:06:53.519Z,22.07
2019-03-22T04:09:20.194Z,23.40
2019-03-22T04:11:46.591Z,21.97
2019-03-22T04:14:12.929Z,23.00
2019-03-22T04:16:39.603Z,25.17
2019-03-22T04:19:06.216Z,23.93
2019-03-22T04:21:32.995Z,21.97
2019-03-22T04:23:59.391Z,21.67
2019-03-22T04:26:25.764Z,22.83
2019-03-22T04:29:06.127Z,21.30
2019-03-22T04:31:20.487Z,23.43
2019-03-22T04:33:47.275Z,25.73
2019-03-22T04:36:13.613Z,22.37
2019-03-22T04:38:39.956Z,22.23
2019-03-22T04:41:06.285Z,22.33
2019-03-22T04:43:33.008Z,23.10
2019-03-22T04:45:59.702Z,22.97
2019-03-22T04:48:32.228Z,22.43
2019-03-22T04:51:00.146Z,23.10
2019-03-22T04:53:33.674Z,21.70
2019-03-22T04:56:01.639Z,22.87
2019-03-22T04:58:28.566Z,25.13
2019-03-22T05:00:57.714Z,24.17
2019-03-22T05:03:24.666Z,25.13
2019-03-22T05:05:54.782Z,27.10
2019-03-22T05:08:23.991Z,25.17
2019-03-22T05:10:52.121Z,23.40
2019-03-22T05:13:19.974Z,24.33
2019-03-22T05:15:46.928Z,24.07
2019-03-22T05:18:13.774Z,23.77
2019-03-22T05:20:42.549Z,22.30
2019-03-22T05:23:09.940Z,22.87
2019-03-22T05:25:37.321Z,24.20
2019-03-22T05:28:06.115Z,24.50
2019-03-22T05:31:03.502Z,24.47
2019-03-22T05:33:32.140Z,24.47
2019-03-22T05:35:58.898Z,24.20
2019-03-22T05:38:25.221Z,23.60
2019-03-22T05:40:51.961Z,23.37
2019-03-22T05:43:18.301Z,24.23
2019-03-22T05:45:46.704Z,25.03
2019-03-22T05:48:13.031Z,23.00
2019-03-22T05:50:39.839Z,25.00
2019-03-22T05:53:06.671Z,23.73
2019-03-22T05:55:33.430Z,23.73
2019-03-22T05:58:00.362Z,24.40
2019-03-22T06:00:27.125Z,24.47
2019-03-22T06:02:53.852Z,23.57
2019-03-22T06:05:20.600Z,24.57
2019-03-22T06:07:46.953Z,21.93
2019-03-22T06:10:13.391Z,25.17
2019-03-22T06:12:39.975Z,23.00
2019-03-22T06:15:07.139Z,23.53
2019-03-22T06:17:33.761Z,22.97
2019-03-22T06:20:00.492Z,22.80
2019-03-22T06:22:27.244Z,22.77
2019-03-22T06:24:53.612Z,22.50
2019-03-22T06:27:20.242Z,20.93
2019-03-22T06:29:54.017Z,24.30
2019-03-22T06:32:15.279Z,29.60
2019-03-22T06:34:42.018Z,32.70
2019-03-22T06:37:08.322Z,23.30
2019-03-22T06:39:34.682Z,25.67
2019-03-22T06:42:03.027Z,21.40
2019-03-22T06:44:29.571Z,25.70
2019-03-22T06:46:55.916Z,21.57
2019-03-22T06:49:22.332Z,22.27
2019-03-22T06:51:48.652Z,20.13
2019-03-22T06:54:14.989Z,21.37
2019-03-22T06:56:41.382Z,20.60
2019-03-22T06:59:07.691Z,31.37
2019-03-22T07:01:34.031Z,24.03
2019-03-22T07:04:00.365Z,21.80
2019-03-22T07:06:27.084Z,23.10
2019-03-22T07:08:53.389Z,22.67
2019-03-22T07:11:19.769Z,22.90
2019-03-22T07:13:46.093Z,21.00
2019-03-22T07:16:12.492Z,22.57
2019-03-22T07:18:38.916Z,21.60
2019-03-22T07:21:05.272Z,25.73
2019-03-22T07:23:31.993Z,22.77
2019-03-22T07:25:58.352Z,22.93
2019-03-22T07:28:24.721Z,21.67
2019-03-22T07:30:51.059Z,23.63
2019-03-22T07:33:17.425Z,22.63
2019-03-22T07:35:43.772Z,21.87
2019-03-22T07:38:10.110Z,23.00
2019-03-22T07:40:36.724Z,22.47
2019-03-22T07:43:03.464Z,22.07
2019-03-22T07:45:30.122Z,22.30
2019-03-22T07:47:56.760Z,24.23
2019-03-22T07:50:23.157Z,24.03
2019-03-22T07:52:49.467Z,19.93
2019-03-22T07:55:15.790Z,21.37
2019-03-22T07:57:42.470Z,24.50
2019-03-22T08:00:12.079Z,23.70
2019-03-22T08:02:38.537Z,22.77
2019-03-22T08:05:05.788Z,22.90
2019-03-22T08:07:32.512Z,22.37
2019-03-22T08:10:05.648Z,24.17
2019-03-22T08:12:32.114Z,23.90
2019-03-22T08:14:58.448Z,24.27
2019-03-22T08:17:24.818Z,23.43
2019-03-22T08:19:51.552Z,23.87
2019-03-22T08:22:17.881Z,22.20
2019-03-22T08:24:44.238Z,23.77
2019-03-22T08:27:10.610Z,23.97
2019-03-22T08:29:37.026Z,23.70
2019-03-22T08:32:03.403Z,24.37
2019-03-22T08:34:29.954Z,25.17
2019-03-22T08:36:56.328Z,23.87
2019-03-22T08:39:23.753Z,23.67
2019-03-22T08:41:50.275Z,23.30
2019-03-22T08:44:17.604Z,24.63
2019-03-22T08:46:45.101Z,23.10
2019-03-22T08:49:11.740Z,24.90
2019-03-22T08:51:38.609Z,24.10
2019-03-22T08:54:05.002Z,23.50
2019-03-22T08:56:31.443Z,22.40
2019-03-22T08:58:58.072Z,22.30
2019-03-22T09:01:24.409Z,23.77
2019-03-22T09:03:50.800Z,21.97
2019-03-22T09:06:17.205Z,23.80
2019-03-22T09:08:43.725Z,24.47
2019-03-22T09:11:10.451Z,22.87
2019-03-22T09:13:36.824Z,23.57
2019-03-22T09:16:03.173Z,26.30
2019-03-22T09:18:29.544Z,25.33
2019-03-22T09:20:56.224Z,25.87
2019-03-22T09:23:22.669Z,27.33
2019-03-22T09:25:49.565Z,26.40
2019-03-22T09:28:16.348Z,26.77
2019-03-22T09:30:42.907Z,24.90
2019-03-22T09:33:09.298Z,26.83
2019-03-22T09:35:35.647Z,27.27
2019-03-22T09:38:12.302Z,26.83
2019-03-22T09:40:30.217Z,27.17
2019-03-22T09:42:56.636Z,26.40
2019-03-22T09:45:23.024Z,26.03
2019-03-22T09:47:49.410Z,27.70
2019-03-22T09:50:15.905Z,27.97
2019-03-22T09:52:42.260Z,26.63
2019-03-22T09:55:13.921Z,31.33
2019-03-22T09:57:38.100Z,29.03
2019-03-22T10:00:09.819Z,28.47
2019-03-22T10:02:36.189Z,27.93
2019-03-22T10:05:04.711Z,29.70
2019-03-22T10:07:31.160Z,30.23
2019-03-22T10:09:57.665Z,30.13
2019-03-22T10:12:24.048Z,32.33
2019-03-22T10:14:50.729Z,29.73
2019-03-22T10:17:18.172Z,32.33
2019-03-22T10:19:44.928Z,30.47
2019-03-22T10:22:11.274Z,33.80
2019-03-22T10:24:38.132Z,32.17
2019-03-22T10:27:05.343Z,31.00
2019-03-22T10:29:32.118Z,31.03
2019-03-22T10:31:58.583Z,34.90
2019-03-22T10:34:25.094Z,35.40
2019-03-22T10:36:51.470Z,33.53
2019-03-22T10:39:17.856Z,34.03
2019-03-22T10:41:44.275Z,34.50
2019-03-22T10:44:10.673Z,36.80
2019-03-22T10:46:37.131Z,36.30
2019-03-22T10:49:04.814Z,36.63
2019-03-22T10:51:31.249Z,32.70
2019-03-22T10:53:57.600Z,33.43
2019-03-22T10:56:25.043Z,32.90
2019-03-22T10:58:51.565Z,34.90
2019-03-22T11:01:17.904Z,35.37
2019-03-22T11:03:44.277Z,39.47
2019-03-22T11:06:11.045Z,35.60
2019-03-22T11:08:37.408Z,34.87
2019-03-22T11:11:03.854Z,32.73
2019-03-22T11:13:30.206Z,32.10
2019-03-22T11:15:56.802Z,35.13
2019-03-22T11:18:23.346Z,31.80
2019-03-22T11:20:49.703Z,32.57
2019-03-22T11:23:16.045Z,31.70
2019-03-22T11:25:42.372Z,30.90
2019-03-22T11:28:08.721Z,32.00
2019-03-22T11:30:35.105Z,30.93
2019-03-22T11:33:01.454Z,33.87
2019-03-22T11:35:27.840Z,30.57
2019-03-22T11:37:54.171Z,29.10
2019-03-22T11:40:21.100Z,23.73
2019-03-22T11:42:48.399Z,25.97
2019-03-22T11:45:20.314Z,23.90
2019-03-22T11:47:47.033Z,26.23
2019-03-22T11:50:14.226Z,25.50
2019-03-22T11:52:40.836Z,25.57
2019-03-22T11:55:11.333Z,25.63
2019-03-22T11:57:38.255Z,26.20
2019-03-22T12:00:18.259Z,27.30
2019-03-22T12:02:45.032Z,25.67
2019-03-22T12:05:12.269Z,23.37
2019-03-22T12:07:39.040Z,24.87
2019-03-22T12:10:09.102Z,25.10
2019-03-22T12:12:35.787Z,20.47
2019-03-22T12:15:05.528Z,17.67
2019-03-22T12:17:31.895Z,15.50
2019-03-22T12:19:58.672Z,16.47
2019-03-22T12:22:25.071Z,13.80
2019-03-22T12:24:51.401Z,16.97
2019-03-22T12:27:18.057Z,17.50
2019-03-22T12:29:44.584Z,16.67
2019-03-22T12:32:11.186Z,14.87
2019-03-22T12:34:37.549Z,17.77
2019-03-22T12:37:03.891Z,17.10
2019-03-22T12:39:30.248Z,16.70
2019-03-22T12:41:57.003Z,17.47
2019-03-22T12:44:23.320Z,17.90
2019-03-22T12:46:50.784Z,17.30
2019-03-22T12:49:18.484Z,18.63
2019-03-22T12:51:45.730Z,18.90
2019-03-22T12:54:12.537Z,16.50
2019-03-22T12:56:38.927Z,16.23
2019-03-22T12:59:05.698Z,17.73
2019-03-22T13:01:32.025Z,17.70
2019-03-22T13:03:58.409Z,15.73
2019-03-22T13:06:25.091Z,15.57
2019-03-22T13:08:51.937Z,15.17
2019-03-22T13:11:19.715Z,13.80
2019-03-22T13:13:46.347Z,16.87
2019-03-22T13:16:13.607Z,16.63
2019-03-22T13:18:49.618Z,15.70
2019-03-22T13:21:08.342Z,13.70
2019-03-22T13:23:35.041Z,13.47
2019-03-22T13:26:01.555Z,13.60
2019-03-22T13:28:27.861Z,14.87
2019-03-22T13:30:54.537Z,16.00
2019-03-22T13:33:20.901Z,16.00
2019-03-22T13:35:47.251Z,16.80
2019-03-22T13:38:13.742Z,17.00
2019-03-22T13:40:40.038Z,16.40
2019-03-22T13:43:06.508Z,16.17
2019-03-22T13:45:32.928Z,16.10
2019-03-22T13:47:59.811Z,19.33
2019-03-22T13:50:26.541Z,17.43
2019-03-22T13:52:53.287Z,18.10
2019-03-22T13:55:19.636Z,18.17
2019-03-22T13:57:46.003Z,19.60
2019-03-22T14:00:16.475Z,18.60
2019-03-22T14:02:43.832Z,14.70
2019-03-22T14:05:10.573Z,15.40
2019-03-22T14:07:36.907Z,15.30
2019-03-22T14:10:06.527Z,20.10
2019-03-22T14:12:37.072Z,20.13
2019-03-22T14:15:02.039Z,20.00
2019-03-22T14:17:28.369Z,19.10
2019-03-22T14:19:54.734Z,18.33
2019-03-22T14:22:21.550Z,18.23
2019-03-22T14:24:49.218Z,14.80
2019-03-22T14:27:15.610Z,13.60
2019-03-22T14:29:42.470Z,14.83
2019-03-22T14:32:08.832Z,16.10
2019-03-22T14:34:35.549Z,15.30
2019-03-22T14:37:02.190Z,15.20
2019-03-22T14:39:28.588Z,16.97
2019-03-22T14:41:54.915Z,18.50
2019-03-22T14:44:25.490Z,20.60
2019-03-22T14:46:50.938Z,20.43
2019-03-22T14:49:17.326Z,22.20
2019-03-22T14:51:43.976Z,25.33
2019-03-22T14:54:10.713Z,23.47
2019-03-22T14:56:37.342Z,21.93
2019-03-22T14:59:04.081Z,23.70
2019-03-22T15:01:30.708Z,21.03
2019-03-22T15:03:57.395Z,23.20
2019-03-22T15:06:23.813Z,22.40
2019-03-22T15:08:56.626Z,22.30
2019-03-22T15:11:23.379Z,20.50
2019-03-22T15:13:54.556Z,21.40
2019-03-22T15:16:24.616Z,20.87
2019-03-22T15:18:53.187Z,20.70
2019-03-22T15:21:33.435Z,21.30
2019-03-22T15:24:11.628Z,19.73
2019-03-22T15:26:57.121Z,19.20
2019-03-22T15:29:31.305Z,19.30
2019-03-22T15:32:11.905Z,20.60
2019-03-22T15:34:49.178Z,19.53
2019-03-22T15:37:34.057Z,21.10
2019-03-22T15:40:00.496Z,20.20
2019-03-22T15:42:27.328Z,20.37
2019-03-22T15:44:53.698Z,18.70
2019-03-22T15:47:20.612Z,22.13
2019-03-22T15:49:46.998Z,19.20
2019-03-22T15:52:13.432Z,20.30
2019-03-22T15:54:39.904Z,21.67
2019-03-22T15:57:06.550Z,17.30
2019-03-22T15:59:32.961Z,20.60
2019-03-22T16:01:59.291Z,19.50
2019-03-22T16:04:25.812Z,20.47
2019-03-22T16:06:52.158Z,19.77
2019-03-22T16:09:18.907Z,21.77
2019-03-22T16:11:45.247Z,21.60
2019-03-22T16:14:11.730Z,22.33
2019-03-22T16:16:38.436Z,22.10
2019-03-22T16:19:05.288Z,23.37
2019-03-22T16:21:32.118Z,22.17
2019-03-22T16:23:58.581Z,24.07
2019-03-22T16:26:25.627Z,22.87
2019-03-22T16:28:51.945Z,25.30
2019-03-22T16:31:18.670Z,25.43
2019-03-22T16:33:53.943Z,25.37
2019-03-22T16:36:13.962Z,27.27
2019-03-22T16:38:40.615Z,26.23
2019-03-22T16:41:07.297Z,27.50
2019-03-22T16:43:33.608Z,27.67
2019-03-22T16:46:00.025Z,23.70
2019-03-22T16:48:26.370Z,24.40
2019-03-22T16:50:53.119Z,22.70
2019-03-22T16:53:19.948Z,22.50
2019-03-22T16:55:46.708Z,21.93
2019-03-22T16:58:13.555Z,22.60
2019-03-22T17:00:40.161Z,22.33
2019-03-22T17:03:07.416Z,22.03
2019-03-22T17:05:34.682Z,22.10
2019-03-22T17:08:01.424Z,21.70
2019-03-22T17:10:28.032Z,22.17
2019-03-22T17:12:54.819Z,22.00
2019-03-22T17:15:21.647Z,24.13
2019-03-22T17:17:48.320Z,24.70
2019-03-22T17:20:15.360Z,24.53
2019-03-22T17:22:42.265Z,22.10
2019-03-22T17:25:08.946Z,23.70
2019-03-22T17:27:35.288Z,23.30
2019-03-22T17:30:08.447Z,24.67
2019-03-22T17:32:35.522Z,23.40
2019-03-22T17:35:04.670Z,23.03
2019-03-22T17:37:31.336Z,24.50
2019-03-22T17:39:57.727Z,23.43
2019-03-22T17:42:24.613Z,23.37
2019-03-22T17:44:50.980Z,22.57
2019-03-22T17:47:17.317Z,24.30
2019-03-22T17:49:48.247Z,23.40
2019-03-22T17:52:12.114Z,22.70
2019-03-22T17:54:38.585Z,21.93
2019-03-22T17:57:06.377Z,22.33
2019-03-22T17:59:32.739Z,23.10
2019-03-22T18:01:59.451Z,22.03
2019-03-22T18:04:26.112Z,22.67
2019-03-22T18:06:52.524Z,23.13
2019-03-22T18:09:19.265Z,24.10
2019-03-22T18:11:46.642Z,23.70
2019-03-22T18:14:13.486Z,23.63
2019-03-22T18:16:40.290Z,23.33
2019-03-22T18:19:09.481Z,22.57
2019-03-22T18:21:35.949Z,21.93
2019-03-22T18:24:02.333Z,24.13
2019-03-22T18:26:28.812Z,22.30
2019-03-22T18:28:55.348Z,23.13
2019-03-22T18:31:22.085Z,24.00
2019-03-22T18:33:48.683Z,22.50
2019-03-22T18:36:15.012Z,25.40
2019-03-22T18:38:42.001Z,25.03
2019-03-22T18:41:08.656Z,29.03
2019-03-22T18:43:35.025Z,27.77
2019-03-22T18:46:01.481Z,28.87
2019-03-22T18:48:28.003Z,24.10
2019-03-22T18:50:56.949Z,28.13
2019-03-22T18:53:22.957Z,28.50
2019-03-22T18:55:49.315Z,27.17
2019-03-22T18:58:15.674Z,26.80
2019-03-22T19:00:42.038Z,27.77
2019-03-22T19:03:08.397Z,24.57
2019-03-22T19:05:34.770Z,26.37
2019-03-22T19:08:02.578Z,26.67
2019-03-22T19:10:29.049Z,27.03
2019-03-22T19:12:55.528Z,26.00
2019-03-22T19:15:22.306Z,25.07
2019-03-22T19:17:48.638Z,28.47
2019-03-22T19:20:15.783Z,29.37
2019-03-22T19:22:42.497Z,31.37
2019-03-22T19:25:09.692Z,38.73
2019-03-22T19:27:36.311Z,30.73
2019-03-22T19:30:12.676Z,30.20
2019-03-22T19:32:39.419Z,30.17
2019-03-22T19:35:07.373Z,31.43
2019-03-22T19:37:34.496Z,27.63
2019-03-22T19:40:01.212Z,24.00
2019-03-22T19:42:28.275Z,26.70
2019-03-22T19:44:55.251Z,28.30
2019-03-22T19:47:21.817Z,36.20
2019-03-22T19:49:50.150Z,59.80
2019-03-22T19:52:17.219Z,39.17
2019-03-22T19:54:43.977Z,39.83
2019-03-22T19:57:10.766Z,39.77
2019-03-22T19:59:37.213Z,103.00
2019-03-22T20:02:07.290Z,73.93
2019-03-22T20:04:33.957Z,44.13
2019-03-22T20:07:03.190Z,37.30
2019-03-22T20:09:29.690Z,34.43
2019-03-22T20:11:56.114Z,33.80
2019-03-22T20:14:23.114Z,35.07
2019-03-22T20:16:50.206Z,35.00
2019-03-22T20:19:16.746Z,35.30
2019-03-22T20:21:43.205Z,38.50
2019-03-22T20:24:10.223Z,34.43
2019-03-22T20:26:36.908Z,33.47
2019-03-22T20:29:04.029Z,35.10
2019-03-22T20:31:30.828Z,37.67
2019-03-22T20:33:57.567Z,39.60
2019-03-22T20:36:24.309Z,37.73
2019-03-22T20:38:50.638Z,37.07
2019-03-22T20:41:18.498Z,37.87
2019-03-22T20:43:45.720Z,39.17
2019-03-22T20:46:15.788Z,36.63
2019-03-22T20:48:43.002Z,35.93
2019-03-22T20:51:09.754Z,33.23
2019-03-22T20:53:36.496Z,31.60
2019-03-22T20:56:03.114Z,38.40
2019-03-22T20:58:29.665Z,33.07
2019-03-22T21:00:56.013Z,46.03
2019-03-22T21:03:22.754Z,34.60
2019-03-22T21:05:49.238Z,32.20
2019-03-22T21:08:15.558Z,31.40
2019-03-22T21:10:44.496Z,32.63
2019-03-22T21:13:10.858Z,33.70
2019-03-22T21:15:37.478Z,33.13
2019-03-22T21:18:03.885Z,34.83
2019-03-22T21:20:30.383Z,34.57
2019-03-22T21:22:57.214Z,33.57
2019-03-22T21:25:23.574Z,34.20
2019-03-22T21:27:50.228Z,32.03
2019-03-22T21:30:16.572Z,39.27
2019-03-22T21:32:45.651Z,39.83
2019-03-22T21:35:21.867Z,34.77
2019-03-22T21:37:40.177Z,30.07
2019-03-22T21:40:08.726Z,33.27
2019-03-22T21:42:35.526Z,30.50
2019-03-22T21:45:04.092Z,32.07
2019-03-22T21:47:30.582Z,31.27
2019-03-22T21:49:58.940Z,29.97
2019-03-22T21:52:25.302Z,32.53
2019-03-22T21:54:52.080Z,31.00
2019-03-22T21:57:18.449Z,32.57
2019-03-22T21:59:44.779Z,30.73
2019-03-22T22:02:11.142Z,31.40
2019-03-22T22:04:37.480Z,29.33
2019-03-22T22:07:04.160Z,32.03
2019-03-22T22:09:30.520Z,31.10
2019-03-22T22:11:56.892Z,33.30
2019-03-22T22:14:23.749Z,33.20
2019-03-22T22:16:50.392Z,31.23
2019-03-22T22:19:17.015Z,31.10
2019-03-22T22:21:43.357Z,32.30
2019-03-22T22:24:09.704Z,30.20
2019-03-22T22:26:36.321Z,30.57
2019-03-22T22:29:02.971Z,33.77
2019-03-22T22:31:29.359Z,33.23
2019-03-22T22:33:55.735Z,31.40
2019-03-22T22:36:22.741Z,31.43
2019-03-22T22:38:49.095Z,29.30
2019-03-22T22:41:15.473Z,25.73
2019-03-22T22:43:42.914Z,27.60
2019-03-22T22:46:09.222Z,25.60
2019-03-22T22:48:35.560Z,25.37
2019-03-22T22:51:01.885Z,25.93
2019-03-22T22:53:28.329Z,26.27
2019-03-22T22:55:55.172Z,26.37
2019-03-22T22:58:22.502Z,26.63
2019-03-22T23:00:49.162Z,25.13
2019-03-22T23:03:17.421Z,24.87
2019-03-22T23:05:43.757Z,22.83
2019-03-22T23:08:10.427Z,24.67
2019-03-22T23:10:36.829Z,26.07
2019-03-22T23:13:03.189Z,24.00
2019-03-22T23:15:29.498Z,25.10
2019-03-22T23:17:56.144Z,26.30
2019-03-22T23:20:22.497Z,26.40
2019-03-22T23:22:48.892Z,26.20
2019-03-22T23:25:15.537Z,24.10
2019-03-22T23:27:42.192Z,24.03
2019-03-22T23:30:11.202Z,22.33
2019-03-22T23:32:37.631Z,25.10
2019-03-22T23:35:05.576Z,24.00
2019-03-22T23:37:31.901Z,25.40
2019-03-22T23:39:58.269Z,23.87
2019-03-22T23:42:24.900Z,23.73
2019-03-22T23:44:51.233Z,22.70
2019-03-22T23:47:17.851Z,22.20
2019-03-22T23:49:44.209Z,23.07
2019-03-22T23:52:10.838Z,21.93
2019-03-22T23:54:37.581Z,23.50
2019-03-22T23:57:03.910Z,22.10
2019-03-22T23:59:30.216Z,21.43
